createdAt,value
2022-10-04T00:07:12.954Z,11.20
2022-10-04T00:09:55.520Z,11.30
2022-10-04T00:12:35.586Z,11.20
2022-10-04T00:15:08.231Z,11.30
2022-10-04T00:18:29.454Z,11.30
2022-10-04T00:21:00.388Z,11.30
2022-10-04T00:27:38.565Z,11.40
2022-10-04T00:30:05.766Z,11.30
2022-10-04T00:32:47.568Z,11.40
2022-10-04T00:35:27.057Z,11.30
2022-10-04T00:41:51.065Z,11.30
2022-10-04T00:49:09.009Z,11.30
2022-10-04T00:52:04.538Z,11.30
2022-10-04T00:55:43.772Z,11.30
2022-10-04T00:58:34.035Z,11.50
2022-10-04T01:10:04.776Z,11.20
2022-10-04T01:12:55.938Z,11.20
2022-10-04T01:16:29.536Z,11.10
2022-10-04T01:19:24.625Z,11.20
2022-10-04T01:27:18.380Z,11.10
2022-10-04T01:30:12.651Z,11.10
2022-10-04T01:32:46.845Z,11.10
2022-10-04T01:35:16.537Z,11.10
2022-10-04T01:40:56.420Z,11.10
2022-10-04T01:57:03.403Z,11.10
2022-10-04T01:59:38.499Z,11.10
2022-10-04T02:06:03.661Z,11.10
2022-10-04T02:17:29.624Z,11.10
2022-10-04T02:20:08.372Z,11.10
2022-10-04T02:40:52.028Z,11.00
2022-10-04T02:43:50.206Z,11.00
2022-10-04T02:46:35.418Z,11.00
2022-10-04T02:49:10.825Z,11.40
2022-10-04T02:51:52.970Z,10.90
2022-10-04T02:55:08.844Z,11.00
2022-10-04T03:02:29.666Z,10.90
2022-10-04T03:05:05.959Z,10.80
2022-10-04T03:07:44.375Z,10.90
2022-10-04T03:10:14.014Z,10.80
2022-10-04T03:15:52.758Z,10.80
2022-10-04T03:18:21.312Z,10.80
2022-10-04T03:29:34.385Z,10.80
2022-10-04T03:32:05.884Z,10.80
2022-10-04T03:43:24.872Z,10.70
2022-10-04T03:45:53.788Z,10.60
2022-10-04T03:53:23.827Z,10.60
2022-10-04T03:55:52.601Z,10.60
2022-10-04T03:58:36.552Z,10.50
2022-10-04T04:01:23.436Z,10.50
2022-10-04T04:08:43.153Z,10.50
2022-10-04T04:11:25.107Z,10.50
2022-10-04T04:18:24.562Z,10.60
2022-10-04T04:20:55.779Z,10.70
2022-10-04T04:23:54.137Z,10.60
2022-10-04T04:26:46.540Z,10.60
2022-10-04T04:30:16.085Z,10.60
2022-10-04T04:32:49.826Z,10.60
2022-10-04T04:39:27.227Z,10.50
2022-10-04T05:00:45.076Z,10.40
2022-10-04T05:03:20.463Z,10.30
2022-10-04T05:05:55.245Z,10.30
2022-10-04T05:08:32.834Z,10.30
2022-10-04T05:15:21.383Z,10.30
2022-10-04T05:17:49.012Z,10.30
2022-10-04T05:20:21.043Z,10.30
2022-10-04T05:22:51.776Z,10.30
2022-10-04T05:26:02.487Z,10.30
2022-10-04T05:28:33.240Z,10.30
2022-10-04T05:35:29.275Z,10.30
2022-10-04T05:38:04.604Z,10.30
2022-10-04T05:40:55.829Z,10.50
2022-10-04T05:43:38.692Z,10.30
2022-10-04T05:46:29.704Z,10.40
2022-10-04T05:49:19.143Z,10.40
2022-10-04T05:52:02.880Z,10.50
2022-10-04T05:54:35.940Z,10.50
2022-10-04T05:57:43.678Z,10.50
2022-10-04T06:00:56.436Z,10.50
2022-10-04T06:21:01.807Z,10.80
2022-10-04T06:23:32.002Z,10.80
2022-10-04T06:30:54.808Z,10.90
2022-10-04T06:33:47.298Z,11.00
2022-10-04T06:36:27.907Z,11.00
2022-10-04T06:39:23.186Z,11.00
2022-10-04T06:42:34.233Z,11.10
2022-10-04T06:45:31.110Z,11.20
2022-10-04T06:53:03.081Z,11.30
2022-10-04T06:55:49.966Z,11.30
2022-10-04T06:58:42.623Z,11.40
2022-10-04T07:01:17.742Z,11.50
2022-10-04T07:04:13.609Z,11.40
2022-10-04T07:06:49.557Z,11.50
2022-10-04T07:09:44.978Z,11.20
2022-10-04T07:12:19.044Z,11.60
2022-10-04T07:15:46.337Z,11.60
2022-10-04T07:18:24.282Z,11.60
2022-10-04T07:25:35.808Z,11.70
2022-10-04T07:28:50.532Z,11.80
2022-10-04T07:31:42.533Z,11.00
2022-10-04T07:34:19.387Z,11.90
2022-10-04T07:36:59.640Z,11.90
2022-10-04T07:39:52.649Z,12.00
2022-10-04T07:42:28.054Z,12.00
2022-10-04T07:45:33.382Z,12.00
2022-10-04T07:48:48.320Z,12.10
2022-10-04T07:51:42.619Z,12.10
2022-10-04T07:54:59.586Z,12.20
2022-10-04T07:57:45.255Z,12.30
2022-10-04T08:05:03.210Z,12.40
2022-10-04T08:08:05.875Z,12.30
2022-10-04T08:15:24.895Z,12.50
2022-10-04T08:18:10.246Z,12.60
2022-10-04T08:20:53.047Z,12.70
2022-10-04T08:23:34.055Z,12.70
2022-10-04T08:26:34.477Z,12.70
2022-10-04T08:29:43.547Z,12.70
2022-10-04T08:32:52.980Z,12.70
2022-10-04T08:35:34.738Z,12.60
2022-10-04T08:38:28.978Z,12.70
2022-10-04T08:41:08.696Z,12.00
2022-10-04T08:44:18.376Z,12.90
2022-10-04T08:47:05.893Z,12.90
2022-10-04T08:49:56.366Z,12.90
2022-10-04T08:52:57.945Z,12.80
2022-10-04T08:55:38.825Z,12.90
2022-10-04T08:58:14.542Z,12.90
2022-10-04T09:01:14.180Z,12.90
2022-10-04T09:04:32.512Z,12.90
2022-10-04T09:07:21.417Z,13.00
2022-10-04T09:14:24.557Z,13.20
2022-10-04T09:17:31.277Z,13.20
2022-10-04T09:20:38.212Z,13.10
2022-10-04T09:23:24.261Z,13.00
2022-10-04T09:26:48.182Z,13.00
2022-10-04T09:29:33.345Z,13.00
2022-10-04T09:32:52.984Z,13.10
2022-10-04T09:35:56.752Z,13.30
2022-10-04T09:39:01.076Z,13.40
2022-10-04T09:42:01.629Z,13.40
2022-10-04T09:45:41.188Z,13.40
2022-10-04T09:48:39.507Z,13.30
2022-10-04T09:55:53.364Z,13.20
2022-10-04T09:58:53.544Z,13.30
2022-10-04T10:01:34.897Z,13.40
2022-10-04T10:04:41.366Z,13.40
2022-10-04T10:07:39.353Z,13.40
2022-10-04T10:11:02.808Z,13.50
2022-10-04T10:18:07.508Z,13.50
2022-10-04T10:20:50.423Z,13.30
2022-10-04T10:23:46.536Z,13.50
2022-10-04T10:26:47.593Z,13.60
2022-10-04T10:29:40.004Z,13.70
2022-10-04T10:32:55.145Z,13.80
2022-10-04T10:35:34.179Z,13.90
2022-10-04T10:38:45.737Z,14.10
2022-10-04T10:41:59.676Z,14.10
2022-10-04T10:45:30.633Z,14.20
2022-10-04T10:48:19.791Z,14.30
2022-10-04T10:55:32.346Z,14.30
2022-10-04T10:58:20.471Z,14.40
2022-10-04T11:01:23.159Z,14.50
2022-10-04T11:04:06.902Z,14.40
2022-10-04T11:15:54.967Z,14.20
2022-10-04T11:19:06.757Z,14.40
2022-10-04T11:21:58.312Z,14.30
2022-10-04T11:25:04.740Z,14.20
2022-10-04T11:27:58.617Z,14.30
2022-10-04T11:31:13.382Z,14.40
2022-10-04T11:34:16.674Z,14.60
2022-10-04T11:37:09.179Z,14.80
2022-10-04T11:39:57.629Z,14.70
2022-10-04T11:43:04.758Z,14.60
2022-10-04T11:45:40.899Z,14.60
2022-10-04T11:48:35.837Z,14.70
2022-10-04T11:51:38.939Z,14.50
2022-10-04T11:54:32.197Z,14.30
2022-10-04T11:57:22.636Z,14.20
2022-10-04T12:00:21.871Z,14.40
2022-10-04T12:03:01.807Z,14.60
2022-10-04T12:06:04.428Z,14.70
2022-10-04T12:08:56.092Z,14.70
2022-10-04T12:12:17.344Z,14.80
2022-10-04T12:15:08.972Z,14.90
2022-10-04T12:18:07.993Z,14.90
2022-10-04T12:20:53.938Z,15.00
2022-10-04T12:24:32.909Z,15.00
2022-10-04T12:27:24.571Z,15.10
2022-10-04T12:34:40.197Z,15.20
2022-10-04T12:37:42.980Z,15.30
2022-10-04T12:44:50.999Z,15.30
2022-10-04T12:47:31.304Z,15.30
2022-10-04T12:50:26.685Z,15.30
2022-10-04T12:53:23.503Z,15.30
2022-10-04T12:56:23.133Z,15.50
2022-10-04T12:59:28.337Z,15.60
2022-10-04T13:06:55.947Z,15.60
2022-10-04T13:09:41.786Z,15.60
2022-10-04T13:12:38.665Z,15.50
2022-10-04T13:17:23.266Z,15.40
2022-10-04T13:18:19.789Z,15.40
2022-10-04T13:21:10.646Z,15.30
2022-10-04T13:24:05.936Z,15.30
2022-10-04T13:26:55.400Z,15.30
2022-10-04T13:29:42.827Z,15.30
2022-10-04T13:32:28.828Z,15.30
2022-10-04T13:35:14.419Z,15.30
2022-10-04T13:37:53.223Z,15.30
2022-10-04T13:41:31.694Z,15.30
2022-10-04T13:44:23.311Z,15.40
2022-10-04T13:47:20.394Z,15.50
2022-10-04T13:50:24.232Z,15.50
2022-10-04T13:53:32.717Z,15.50
2022-10-04T13:56:27.239Z,15.40
2022-10-04T13:59:34.979Z,15.50
2022-10-04T14:02:30.733Z,15.40
2022-10-04T14:06:12.953Z,15.30
2022-10-04T14:08:59.976Z,15.30
2022-10-04T14:12:17.711Z,15.30
2022-10-04T14:15:25.478Z,15.30
2022-10-04T14:18:34.213Z,15.60
2022-10-04T14:21:25.860Z,15.20
2022-10-04T14:24:20.849Z,15.30
2022-10-04T14:27:16.410Z,15.20
2022-10-04T14:30:29.493Z,15.20
2022-10-04T14:33:30.332Z,15.10
2022-10-04T14:40:51.957Z,14.90
2022-10-04T14:48:18.304Z,14.10
2022-10-04T14:51:20.548Z,14.60
2022-10-04T14:54:29.624Z,14.50
2022-10-04T15:06:54.566Z,14.50
2022-10-04T15:09:57.939Z,14.50
2022-10-04T15:16:58.514Z,14.50
2022-10-04T15:19:44.613Z,14.40
2022-10-04T15:34:47.791Z,14.20
2022-10-04T15:37:41.181Z,14.20
2022-10-04T15:40:33.115Z,14.20
2022-10-04T15:43:37.385Z,14.10
2022-10-04T15:46:24.369Z,14.00
2022-10-04T15:49:39.070Z,14.00
2022-10-04T15:52:43.477Z,13.90
2022-10-04T16:00:10.971Z,13.80
2022-10-04T16:02:47.662Z,13.80
2022-10-04T16:05:41.669Z,13.80
2022-10-04T16:08:10.717Z,13.60
2022-10-04T16:11:53.883Z,13.60
2022-10-04T16:14:23.721Z,13.50
2022-10-04T16:17:19.055Z,13.50
2022-10-04T16:20:10.100Z,13.40
2022-10-04T16:32:02.094Z,13.20
2022-10-04T16:37:53.430Z,12.90
2022-10-04T16:44:55.989Z,12.70
2022-10-04T16:52:30.109Z,12.40
2022-10-04T16:55:19.494Z,12.10
2022-10-04T16:58:25.345Z,12.00
2022-10-04T17:01:27.257Z,11.90
2022-10-04T17:12:56.166Z,11.50
2022-10-04T17:15:54.348Z,11.70
2022-10-04T17:18:46.777Z,11.70
2022-10-04T17:21:48.600Z,11.50
2022-10-04T17:29:23.480Z,11.50
2022-10-04T17:32:08.355Z,11.50
2022-10-04T17:39:04.154Z,11.20
2022-10-04T17:41:37.143Z,11.10
2022-10-04T17:44:37.222Z,11.00
2022-10-04T17:47:24.359Z,11.00
2022-10-04T17:50:31.909Z,10.80
2022-10-04T17:53:28.963Z,10.80
2022-10-04T17:56:01.869Z,11.00
2022-10-04T18:07:27.979Z,10.60
2022-10-04T18:14:21.141Z,10.40
2022-10-04T18:17:07.628Z,10.30
2022-10-04T18:20:10.825Z,10.30
2022-10-04T18:22:51.881Z,10.30
2022-10-04T18:39:04.912Z,10.00
2022-10-04T18:41:54.867Z,10.00
2022-10-04T19:11:03.210Z,9.80
2022-10-04T19:14:17.405Z,9.90
2022-10-04T19:21:37.949Z,9.80
2022-10-04T19:24:27.929Z,9.50
2022-10-04T19:36:20.976Z,9.50
2022-10-04T19:39:12.465Z,9.30
2022-10-04T19:41:59.244Z,9.30
2022-10-04T19:44:58.128Z,9.30
2022-10-04T19:48:10.424Z,9.30
2022-10-04T19:50:48.395Z,9.20
2022-10-04T20:02:13.498Z,9.10
2022-10-04T20:04:53.947Z,9.00
2022-10-04T20:07:48.540Z,8.90
2022-10-04T20:10:30.809Z,8.90
2022-10-04T20:13:24.805Z,8.90
2022-10-04T20:16:03.782Z,8.90
2022-10-04T20:27:48.950Z,8.90
2022-10-04T20:31:29.038Z,9.00
2022-10-04T20:34:32.911Z,9.10
2022-10-04T20:45:09.983Z,9.00
2022-10-04T20:48:03.418Z,8.80
2022-10-04T20:50:44.787Z,8.70
2022-10-04T20:58:04.063Z,8.60
2022-10-04T21:00:41.653Z,8.70
2022-10-04T21:08:42.085Z,8.90
2022-10-04T21:15:22.410Z,8.40
2022-10-04T21:26:29.457Z,8.40
2022-10-04T21:49:10.561Z,8.30
2022-10-04T21:56:03.578Z,8.40
2022-10-04T21:58:43.464Z,8.20
2022-10-04T22:06:02.663Z,8.10
2022-10-04T22:08:32.913Z,8.00
2022-10-04T22:11:30.205Z,8.10
2022-10-04T22:14:00.926Z,8.10
2022-10-04T22:17:03.756Z,8.00
2022-10-04T22:19:32.313Z,8.10
2022-10-04T22:22:24.286Z,8.30
2022-10-04T22:24:52.632Z,8.80
2022-10-04T22:36:47.553Z,7.90
2022-10-04T22:39:18.856Z,7.90
2022-10-04T22:42:05.669Z,8.20
2022-10-04T22:44:38.472Z,8.10
2022-10-04T22:47:26.584Z,8.10
2022-10-04T22:49:56.470Z,8.00
2022-10-04T22:52:29.699Z,7.80
2022-10-04T22:55:01.857Z,7.80
2022-10-04T22:57:34.442Z,7.90
2022-10-04T23:00:03.273Z,7.90
2022-10-04T23:06:37.918Z,8.10
2022-10-04T23:09:06.457Z,7.80
2022-10-04T23:11:48.989Z,7.90
2022-10-04T23:14:17.365Z,7.90
2022-10-04T23:17:37.745Z,8.00
2022-10-04T23:20:18.077Z,8.10
2022-10-04T23:23:01.107Z,8.20
2022-10-04T23:25:34.142Z,8.20
2022-10-04T23:29:23.207Z,7.70
2022-10-04T23:31:54.643Z,8.10
2022-10-04T23:34:38.039Z,8.00
2022-10-04T23:37:19.968Z,7.10
2022-10-04T23:43:51.811Z,7.90
2022-10-04T23:46:25.250Z,7.90
2022-10-04T23:48:52.615Z,8.00
2022-10-04T23:55:51.063Z,8.10
2022-10-04T23:58:24.595Z,8.20
